Air Navigation Services of Czech Republic
Airport: LKPR Updated:  22.06.2017 23:48:09  UTC
 METAR LKPR 22.06. 23:30 ...
METAR LKPR 222330Z 34008KT 9000 -TSRA FEW003 BKN046CB 16/16 Q1014 NOSIG RMK REG QNH 1007=
 TAF LKPR 22.06. 23:00 ...
TAF LKPR 222300Z 2300/2406 24012KT 9999 SCT040      TEMPO 2300/2309 7000 SHRA BKN030      PROB30 TEMPO 2300/2304 30026G40KT 3000 TSRA BKN030CB      BECMG 2306/2308 30014KT      BECMG 2320/2322 24010KT CAVOK=
 WARNING LKPR 22.06. 22:55 ...
LKPR AD WRNG 5 VALID 222300/230000 SFC WSPD MAX 40KT=
 WARNING LKPR 22.06. 22:18 ...
LKPR AD WRNG 4 VALID 222220/230020 TS FCST NC=